sensor_id;sensor_type;location;lat;lon;timestamp;P1;durP1;ratioP1;P2;durP2;ratioP2
1402;SDS011;696;48.546;9.896;2023-04-16T00:01:46;2.75;;;2.30;;
1402;SDS011;696;48.546;9.896;2023-04-16T00:04:12;4.10;;;2.40;;
1402;SDS011;696;48.546;9.896;2023-04-16T00:06:37;3.35;;;2.60;;
1402;SDS011;696;48.546;9.896;2023-04-16T00:09:02;3.60;;;2.50;;
1402;SDS011;696;48.546;9.896;2023-04-16T00:11:28;2.42;;;2.15;;
1402;SDS011;696;48.546;9.896;2023-04-16T00:13:53;3.15;;;2.60;;
1402;SDS011;696;48.546;9.896;2023-04-16T00:16:19;5.40;;;2.70;;
1402;SDS011;696;48.546;9.896;2023-04-16T00:18:44;3.28;;;2.80;;
1402;SDS011;696;48.546;9.896;2023-04-16T00:21:10;3.33;;;2.75;;
1402;SDS011;696;48.546;9.896;2023-04-16T00:23:35;3.15;;;2.78;;
1402;SDS011;696;48.546;9.896;2023-04-16T00:26:01;2.83;;;2.42;;
1402;SDS011;696;48.546;9.896;2023-04-16T00:28:27;2.65;;;2.30;;
1402;SDS011;696;48.546;9.896;2023-04-16T00:30:52;2.88;;;2.40;;
1402;SDS011;696;48.546;9.896;2023-04-16T00:33:18;3.67;;;2.78;;
1402;SDS011;696;48.546;9.896;2023-04-16T00:35:44;3.05;;;2.33;;
1402;SDS011;696;48.546;9.896;2023-04-16T00:38:10;3.78;;;3.03;;
1402;SDS011;696;48.546;9.896;2023-04-16T00:40:36;3.33;;;2.55;;
1402;SDS011;696;48.546;9.896;2023-04-16T00:43:01;3.55;;;2.85;;
1402;SDS011;696;48.546;9.896;2023-04-16T00:45:27;3.42;;;2.75;;
1402;SDS011;696;48.546;9.896;2023-04-16T00:47:52;3.83;;;3.08;;
1402;SDS011;696;48.546;9.896;2023-04-16T00:50:17;3.63;;;2.72;;
1402;SDS011;696;48.546;9.896;2023-04-16T00:52:44;3.70;;;2.97;;
1402;SDS011;696;48.546;9.896;2023-04-16T00:55:14;3.45;;;2.80;;
1402;SDS011;696;48.546;9.896;2023-04-16T00:57:41;3.42;;;2.88;;
1402;SDS011;696;48.546;9.896;2023-04-16T01:00:07;6.40;;;2.50;;
1402;SDS011;696;48.546;9.896;2023-04-16T01:02:33;3.20;;;2.75;;
1402;SDS011;696;48.546;9.896;2023-04-16T01:04:59;2.58;;;2.35;;
1402;SDS011;696;48.546;9.896;2023-04-16T01:07:25;2.72;;;2.33;;
1402;SDS011;696;48.546;9.896;2023-04-16T01:09:51;2.65;;;2.38;;
1402;SDS011;696;48.546;9.896;2023-04-16T01:12:16;3.65;;;2.97;;
1402;SDS011;696;48.546;9.896;2023-04-16T01:14:41;3.35;;;3.03;;
1402;SDS011;696;48.546;9.896;2023-04-16T01:17:07;6.65;;;2.80;;
1402;SDS011;696;48.546;9.896;2023-04-16T01:19:32;3.83;;;2.60;;
1402;SDS011;696;48.546;9.896;2023-04-16T01:22:00;5.10;;;3.20;;
1402;SDS011;696;48.546;9.896;2023-04-16T01:24:26;6.35;;;3.60;;
1402;SDS011;696;48.546;9.896;2023-04-16T01:26:51;4.68;;;3.20;;
1402;SDS011;696;48.546;9.896;2023-04-16T01:29:17;9.68;;;4.22;;
1402;SDS011;696;48.546;9.896;2023-04-16T01:31:42;5.13;;;3.58;;
1402;SDS011;696;48.546;9.896;2023-04-16T01:34:07;4.30;;;2.80;;
1402;SDS011;696;48.546;9.896;2023-04-16T01:36:33;4.65;;;3.35;;
1402;SDS011;696;48.546;9.896;2023-04-16T01:38:58;5.10;;;3.42;;
1402;SDS011;696;48.546;9.896;2023-04-16T01:41:23;4.53;;;3.45;;
1402;SDS011;696;48.546;9.896;2023-04-16T01:43:49;3.63;;;2.80;;
1402;SDS011;696;48.546;9.896;2023-04-16T01:46:19;4.53;;;3.58;;
1402;SDS011;696;48.546;9.896;2023-04-16T01:48:47;5.20;;;3.22;;
1402;SDS011;696;48.546;9.896;2023-04-16T01:51:12;4.43;;;2.50;;
1402;SDS011;696;48.546;9.896;2023-04-16T01:53:37;2.88;;;2.25;;
1402;SDS011;696;48.546;9.896;2023-04-16T01:56:03;3.75;;;2.67;;
1402;SDS011;696;48.546;9.896;2023-04-16T01:58:30;3.05;;;2.60;;
1402;SDS011;696;48.546;9.896;2023-04-16T02:00:56;3.75;;;2.70;;
1402;SDS011;696;48.546;9.896;2023-04-16T02:03:21;3.92;;;2.80;;
1402;SDS011;696;48.546;9.896;2023-04-16T02:05:48;3.35;;;2.72;;
1402;SDS011;696;48.546;9.896;2023-04-16T02:08:14;2.55;;;2.35;;
1402;SDS011;696;48.546;9.896;2023-04-16T02:10:40;4.32;;;3.03;;
1402;SDS011;696;48.546;9.896;2023-04-16T02:13:05;3.20;;;2.85;;
1402;SDS011;696;48.546;9.896;2023-04-16T02:15:30;3.60;;;2.97;;
1402;SDS011;696;48.546;9.896;2023-04-16T02:17:56;5.05;;;3.03;;
1402;SDS011;696;48.546;9.896;2023-04-16T02:20:21;3.58;;;3.08;;
1402;SDS011;696;48.546;9.896;2023-04-16T02:22:46;4.70;;;3.50;;
1402;SDS011;696;48.546;9.896;2023-04-16T02:25:12;4.85;;;3.42;;
1402;SDS011;696;48.546;9.896;2023-04-16T02:27:38;5.93;;;3.95;;
1402;SDS011;696;48.546;9.896;2023-04-16T02:30:03;4.82;;;3.63;;
1402;SDS011;696;48.546;9.896;2023-04-16T02:32:29;6.03;;;3.92;;
1402;SDS011;696;48.546;9.896;2023-04-16T02:34:55;5.78;;;4.13;;
1402;SDS011;696;48.546;9.896;2023-04-16T02:37:21;5.15;;;3.72;;
1402;SDS011;696;48.546;9.896;2023-04-16T02:39:46;5.47;;;4.13;;
1402;SDS011;696;48.546;9.896;2023-04-16T02:42:13;6.00;;;4.15;;
1402;SDS011;696;48.546;9.896;2023-04-16T02:44:40;5.28;;;4.35;;
1402;SDS011;696;48.546;9.896;2023-04-16T02:47:05;6.55;;;4.30;;
1402;SDS011;696;48.546;9.896;2023-04-16T02:49:31;7.43;;;4.07;;
1402;SDS011;696;48.546;9.896;2023-04-16T02:51:56;7.10;;;4.72;;
1402;SDS011;696;48.546;9.896;2023-04-16T02:54:21;4.28;;;3.78;;
1402;SDS011;696;48.546;9.896;2023-04-16T02:56:47;5.43;;;4.00;;
1402;SDS011;696;48.546;9.896;2023-04-16T02:59:12;6.38;;;3.65;;
1402;SDS011;696;48.546;9.896;2023-04-16T03:01:37;7.95;;;4.38;;
1402;SDS011;696;48.546;9.896;2023-04-16T03:04:03;7.97;;;4.60;;
1402;SDS011;696;48.546;9.896;2023-04-16T03:06:28;7.22;;;4.20;;
1402;SDS011;696;48.546;9.896;2023-04-16T03:08:54;6.25;;;4.00;;
1402;SDS011;696;48.546;9.896;2023-04-16T03:11:19;5.85;;;4.10;;
1402;SDS011;696;48.546;9.896;2023-04-16T03:13:45;4.55;;;3.67;;
1402;SDS011;696;48.546;9.896;2023-04-16T03:16:10;6.18;;;4.10;;
1402;SDS011;696;48.546;9.896;2023-04-16T03:18:35;5.70;;;3.78;;
1402;SDS011;696;48.546;9.896;2023-04-16T03:21:01;5.45;;;3.90;;
1402;SDS011;696;48.546;9.896;2023-04-16T03:23:26;3.38;;;2.95;;
1402;SDS011;696;48.546;9.896;2023-04-16T03:25:52;5.07;;;3.72;;
1402;SDS011;696;48.546;9.896;2023-04-16T03:28:17;5.20;;;3.35;;
1402;SDS011;696;48.546;9.896;2023-04-16T03:30:48;5.82;;;3.47;;
1402;SDS011;696;48.546;9.896;2023-04-16T03:33:17;5.38;;;3.70;;
1402;SDS011;696;48.546;9.896;2023-04-16T03:35:43;7.75;;;3.55;;
1402;SDS011;696;48.546;9.896;2023-04-16T03:38:09;4.60;;;3.20;;
1402;SDS011;696;48.546;9.896;2023-04-16T03:40:34;4.78;;;3.42;;
1402;SDS011;696;48.546;9.896;2023-04-16T03:42:59;4.00;;;3.17;;
1402;SDS011;696;48.546;9.896;2023-04-16T03:45:24;4.15;;;2.90;;
1402;SDS011;696;48.546;9.896;2023-04-16T03:47:50;4.43;;;3.17;;
1402;SDS011;696;48.546;9.896;2023-04-16T03:50:19;4.22;;;3.13;;
1402;SDS011;696;48.546;9.896;2023-04-16T03:52:45;5.93;;;3.33;;
1402;SDS011;696;48.546;9.896;2023-04-16T03:55:13;5.93;;;2.83;;
1402;SDS011;696;48.546;9.896;2023-04-16T03:57:38;4.50;;;3.15;;
1402;SDS011;696;48.546;9.896;2023-04-16T04:00:04;6.32;;;3.72;;
1402;SDS011;696;48.546;9.896;2023-04-16T04:02:29;3.65;;;3.05;;
1402;SDS011;696;48.546;9.896;2023-04-16T04:04:55;5.20;;;3.13;;
1402;SDS011;696;48.546;9.896;2023-04-16T04:07:20;3.42;;;2.53;;
1402;SDS011;696;48.546;9.896;2023-04-16T04:09:45;3.80;;;3.13;;
1402;SDS011;696;48.546;9.896;2023-04-16T04:12:11;3.78;;;3.03;;
1402;SDS011;696;48.546;9.896;2023-04-16T04:14:37;3.65;;;3.00;;
1402;SDS011;696;48.546;9.896;2023-04-16T04:17:04;3.75;;;2.83;;
1402;SDS011;696;48.546;9.896;2023-04-16T04:19:29;3.67;;;2.70;;
1402;SDS011;696;48.546;9.896;2023-04-16T04:21:55;5.63;;;3.72;;
1402;SDS011;696;48.546;9.896;2023-04-16T04:24:20;4.85;;;3.63;;
1402;SDS011;696;48.546;9.896;2023-04-16T04:26:45;4.50;;;2.92;;
1402;SDS011;696;48.546;9.896;2023-04-16T04:29:11;5.90;;;3.25;;
1402;SDS011;696;48.546;9.896;2023-04-16T04:31:37;4.00;;;3.03;;
1402;SDS011;696;48.546;9.896;2023-04-16T04:34:02;6.05;;;3.10;;
1402;SDS011;696;48.546;9.896;2023-04-16T04:36:28;5.20;;;3.00;;
1402;SDS011;696;48.546;9.896;2023-04-16T04:38:53;4.82;;;3.17;;
1402;SDS011;696;48.546;9.896;2023-04-16T04:41:18;4.05;;;3.00;;
1402;SDS011;696;48.546;9.896;2023-04-16T04:43:44;5.30;;;3.15;;
1402;SDS011;696;48.546;9.896;2023-04-16T04:46:09;3.70;;;2.60;;
1402;SDS011;696;48.546;9.896;2023-04-16T04:48:34;6.05;;;2.92;;
1402;SDS011;696;48.546;9.896;2023-04-16T04:51:00;4.72;;;3.00;;
1402;SDS011;696;48.546;9.896;2023-04-16T04:53:28;5.25;;;2.83;;
1402;SDS011;696;48.546;9.896;2023-04-16T04:55:53;4.97;;;3.08;;
1402;SDS011;696;48.546;9.896;2023-04-16T04:58:19;2.63;;;2.17;;
1402;SDS011;696;48.546;9.896;2023-04-16T05:00:44;5.95;;;2.80;;
1402;SDS011;696;48.546;9.896;2023-04-16T05:03:10;3.88;;;2.70;;
1402;SDS011;696;48.546;9.896;2023-04-16T05:05:36;4.20;;;2.70;;
1402;SDS011;696;48.546;9.896;2023-04-16T05:08:05;4.88;;;3.28;;
1402;SDS011;696;48.546;9.896;2023-04-16T05:10:30;3.58;;;2.63;;
1402;SDS011;696;48.546;9.896;2023-04-16T05:12:56;5.22;;;3.20;;
1402;SDS011;696;48.546;9.896;2023-04-16T05:15:21;2.80;;;2.47;;
1402;SDS011;696;48.546;9.896;2023-04-16T05:17:47;3.30;;;2.42;;
1402;SDS011;696;48.546;9.896;2023-04-16T05:20:12;5.00;;;2.50;;
1402;SDS011;696;48.546;9.896;2023-04-16T05:22:37;5.05;;;2.10;;
1402;SDS011;696;48.546;9.896;2023-04-16T05:25:03;4.07;;;2.33;;
1402;SDS011;696;48.546;9.896;2023-04-16T05:27:28;2.08;;;1.80;;
1402;SDS011;696;48.546;9.896;2023-04-16T05:29:54;1.90;;;1.70;;
1402;SDS011;696;48.546;9.896;2023-04-16T05:32:19;3.03;;;2.35;;
1402;SDS011;696;48.546;9.896;2023-04-16T05:34:45;2.72;;;2.08;;
1402;SDS011;696;48.546;9.896;2023-04-16T05:37:10;7.05;;;1.98;;
1402;SDS011;696;48.546;9.896;2023-04-16T05:39:35;2.22;;;2.03;;
1402;SDS011;696;48.546;9.896;2023-04-16T05:42:01;2.45;;;2.08;;
1402;SDS011;696;48.546;9.896;2023-04-16T05:44:26;3.25;;;2.08;;
1402;SDS011;696;48.546;9.896;2023-04-16T05:46:51;2.67;;;1.88;;
1402;SDS011;696;48.546;9.896;2023-04-16T05:49:17;2.92;;;2.13;;
1402;SDS011;696;48.546;9.896;2023-04-16T05:51:46;3.22;;;2.20;;
1402;SDS011;696;48.546;9.896;2023-04-16T05:54:12;3.95;;;2.35;;
1402;SDS011;696;48.546;9.896;2023-04-16T05:56:37;2.28;;;1.73;;
1402;SDS011;696;48.546;9.896;2023-04-16T05:59:02;2.75;;;2.17;;
1402;SDS011;696;48.546;9.896;2023-04-16T06:01:28;2.00;;;1.77;;
1402;SDS011;696;48.546;9.896;2023-04-16T06:03:53;2.13;;;1.92;;
1402;SDS011;696;48.546;9.896;2023-04-16T06:06:18;2.10;;;1.77;;
1402;SDS011;696;48.546;9.896;2023-04-16T06:08:43;2.55;;;2.10;;
1402;SDS011;696;48.546;9.896;2023-04-16T06:11:09;2.20;;;1.92;;
1402;SDS011;696;48.546;9.896;2023-04-16T06:13:35;3.40;;;2.25;;
1402;SDS011;696;48.546;9.896;2023-04-16T06:16:00;4.15;;;2.00;;
1402;SDS011;696;48.546;9.896;2023-04-16T06:18:26;2.20;;;2.00;;
1402;SDS011;696;48.546;9.896;2023-04-16T06:20:51;4.43;;;2.05;;
1402;SDS011;696;48.546;9.896;2023-04-16T06:23:17;4.90;;;2.15;;
1402;SDS011;696;48.546;9.896;2023-04-16T06:25:42;2.22;;;2.03;;
1402;SDS011;696;48.546;9.896;2023-04-16T06:28:07;4.50;;;3.00;;
1402;SDS011;696;48.546;9.896;2023-04-16T06:30:33;6.22;;;3.65;;
1402;SDS011;696;48.546;9.896;2023-04-16T06:32:58;5.32;;;2.97;;
1402;SDS011;696;48.546;9.896;2023-04-16T06:35:23;3.70;;;2.45;;
1402;SDS011;696;48.546;9.896;2023-04-16T06:37:49;2.78;;;2.28;;
1402;SDS011;696;48.546;9.896;2023-04-16T06:40:14;3.28;;;2.28;;
1402;SDS011;696;48.546;9.896;2023-04-16T06:42:41;2.70;;;2.38;;
1402;SDS011;696;48.546;9.896;2023-04-16T06:45:06;2.70;;;2.22;;
1402;SDS011;696;48.546;9.896;2023-04-16T06:47:32;3.67;;;1.85;;
1402;SDS011;696;48.546;9.896;2023-04-16T06:49:58;2.42;;;2.08;;
1402;SDS011;696;48.546;9.896;2023-04-16T06:52:23;3.70;;;1.98;;
1402;SDS011;696;48.546;9.896;2023-04-16T06:54:48;2.25;;;2.03;;
1402;SDS011;696;48.546;9.896;2023-04-16T06:57:14;2.08;;;1.88;;
1402;SDS011;696;48.546;9.896;2023-04-16T06:59:40;3.28;;;1.85;;
1402;SDS011;696;48.546;9.896;2023-04-16T07:02:06;3.85;;;1.80;;
1402;SDS011;696;48.546;9.896;2023-04-16T07:04:33;1.98;;;1.63;;
1402;SDS011;696;48.546;9.896;2023-04-16T07:06:58;9.10;;;1.73;;
1402;SDS011;696;48.546;9.896;2023-04-16T07:09:23;3.38;;;2.10;;
1402;SDS011;696;48.546;9.896;2023-04-16T07:11:50;2.75;;;2.30;;
1402;SDS011;696;48.546;9.896;2023-04-16T07:14:15;3.47;;;2.50;;
1402;SDS011;696;48.546;9.896;2023-04-16T07:16:41;3.05;;;2.45;;
1402;SDS011;696;48.546;9.896;2023-04-16T07:19:06;3.60;;;2.45;;
1402;SDS011;696;48.546;9.896;2023-04-16T07:21:32;3.95;;;2.88;;
1402;SDS011;696;48.546;9.896;2023-04-16T07:23:57;2.63;;;2.15;;
1402;SDS011;696;48.546;9.896;2023-04-16T07:26:22;3.95;;;2.70;;
1402;SDS011;696;48.546;9.896;2023-04-16T07:28:48;5.47;;;3.50;;
1402;SDS011;696;48.546;9.896;2023-04-16T07:31:13;3.72;;;2.55;;
1402;SDS011;696;48.546;9.896;2023-04-16T07:33:38;3.40;;;2.15;;
1402;SDS011;696;48.546;9.896;2023-04-16T07:36:04;4.18;;;2.33;;
1402;SDS011;696;48.546;9.896;2023-04-16T07:38:29;2.55;;;2.30;;
1402;SDS011;696;48.546;9.896;2023-04-16T07:40:55;3.40;;;2.40;;
1402;SDS011;696;48.546;9.896;2023-04-16T07:43:20;3.50;;;2.28;;
1402;SDS011;696;48.546;9.896;2023-04-16T07:45:46;3.90;;;2.28;;
1402;SDS011;696;48.546;9.896;2023-04-16T07:48:11;2.67;;;2.28;;
1402;SDS011;696;48.546;9.896;2023-04-16T07:50:36;4.68;;;3.08;;
1402;SDS011;696;48.546;9.896;2023-04-16T07:53:02;4.03;;;2.25;;
1402;SDS011;696;48.546;9.896;2023-04-16T07:55:27;2.72;;;2.25;;
1402;SDS011;696;48.546;9.896;2023-04-16T07:57:53;5.05;;;2.80;;
1402;SDS011;696;48.546;9.896;2023-04-16T08:00:19;3.67;;;2.60;;
1402;SDS011;696;48.546;9.896;2023-04-16T08:02:44;3.90;;;2.30;;
1402;SDS011;696;48.546;9.896;2023-04-16T08:05:10;2.35;;;2.15;;
1402;SDS011;696;48.546;9.896;2023-04-16T08:07:36;4.60;;;2.55;;
1402;SDS011;696;48.546;9.896;2023-04-16T08:10:01;5.43;;;4.13;;
1402;SDS011;696;48.546;9.896;2023-04-16T08:12:28;4.68;;;3.15;;
1402;SDS011;696;48.546;9.896;2023-04-16T08:14:53;7.20;;;4.05;;
1402;SDS011;696;48.546;9.896;2023-04-16T08:17:19;10.68;;;4.50;;
1402;SDS011;696;48.546;9.896;2023-04-16T08:19:44;7.00;;;3.25;;
1402;SDS011;696;48.546;9.896;2023-04-16T08:22:13;6.13;;;4.10;;
1402;SDS011;696;48.546;9.896;2023-04-16T08:24:38;5.90;;;3.45;;
1402;SDS011;696;48.546;9.896;2023-04-16T08:27:04;3.55;;;2.65;;
1402;SDS011;696;48.546;9.896;2023-04-16T08:29:29;3.63;;;2.90;;
1402;SDS011;696;48.546;9.896;2023-04-16T08:31:55;4.03;;;2.75;;
1402;SDS011;696;48.546;9.896;2023-04-16T08:34:20;3.35;;;2.65;;
1402;SDS011;696;48.546;9.896;2023-04-16T08:36:46;4.80;;;3.17;;
1402;SDS011;696;48.546;9.896;2023-04-16T08:39:12;4.32;;;2.80;;
1402;SDS011;696;48.546;9.896;2023-04-16T08:41:37;4.22;;;2.97;;
1402;SDS011;696;48.546;9.896;2023-04-16T08:44:07;5.32;;;3.25;;
1402;SDS011;696;48.546;9.896;2023-04-16T08:46:35;4.63;;;2.95;;
1402;SDS011;696;48.546;9.896;2023-04-16T08:49:01;6.20;;;3.67;;
1402;SDS011;696;48.546;9.896;2023-04-16T08:51:32;7.05;;;4.13;;
1402;SDS011;696;48.546;9.896;2023-04-16T08:54:02;7.68;;;4.18;;
1402;SDS011;696;48.546;9.896;2023-04-16T08:56:30;4.45;;;3.22;;
1402;SDS011;696;48.546;9.896;2023-04-16T08:58:56;5.97;;;3.53;;
1402;SDS011;696;48.546;9.896;2023-04-16T09:01:22;4.50;;;3.20;;
1402;SDS011;696;48.546;9.896;2023-04-16T09:03:49;3.65;;;2.33;;
1402;SDS011;696;48.546;9.896;2023-04-16T09:06:15;8.63;;;2.92;;
1402;SDS011;696;48.546;9.896;2023-04-16T09:08:42;5.60;;;3.10;;
1402;SDS011;696;48.546;9.896;2023-04-16T09:11:08;4.82;;;3.20;;
1402;SDS011;696;48.546;9.896;2023-04-16T09:13:33;5.75;;;3.92;;
1402;SDS011;696;48.546;9.896;2023-04-16T09:15:59;7.03;;;4.72;;
1402;SDS011;696;48.546;9.896;2023-04-16T09:18:24;10.75;;;7.47;;
1402;SDS011;696;48.546;9.896;2023-04-16T09:20:50;6.93;;;4.93;;
1402;SDS011;696;48.546;9.896;2023-04-16T09:23:16;6.47;;;3.95;;
1402;SDS011;696;48.546;9.896;2023-04-16T09:25:42;6.45;;;4.63;;
1402;SDS011;696;48.546;9.896;2023-04-16T09:28:10;11.27;;;8.05;;
1402;SDS011;696;48.546;9.896;2023-04-16T09:30:36;8.68;;;6.32;;
1402;SDS011;696;48.546;9.896;2023-04-16T09:33:16;17.75;;;10.50;;
1402;SDS011;696;48.546;9.896;2023-04-16T09:35:48;17.52;;;9.00;;
1402;SDS011;696;48.546;9.896;2023-04-16T09:38:17;10.80;;;6.90;;
1402;SDS011;696;48.546;9.896;2023-04-16T09:40:43;19.15;;;8.40;;
1402;SDS011;696;48.546;9.896;2023-04-16T09:43:19;16.92;;;9.23;;
1402;SDS011;696;48.546;9.896;2023-04-16T09:45:51;29.65;;;14.82;;
1402;SDS011;696;48.546;9.896;2023-04-16T09:48:28;15.45;;;8.82;;
1402;SDS011;696;48.546;9.896;2023-04-16T09:50:57;18.77;;;12.20;;
1402;SDS011;696;48.546;9.896;2023-04-16T09:53:24;15.75;;;9.55;;
1402;SDS011;696;48.546;9.896;2023-04-16T09:55:51;8.43;;;6.05;;
1402;SDS011;696;48.546;9.896;2023-04-16T09:58:22;13.75;;;7.18;;
1402;SDS011;696;48.546;9.896;2023-04-16T10:00:54;11.98;;;6.15;;
1402;SDS011;696;48.546;9.896;2023-04-16T10:03:28;9.50;;;6.00;;
1402;SDS011;696;48.546;9.896;2023-04-16T10:05:54;16.02;;;7.40;;
1402;SDS011;696;48.546;9.896;2023-04-16T10:08:20;9.57;;;5.80;;
1402;SDS011;696;48.546;9.896;2023-04-16T10:10:47;13.90;;;6.65;;
1402;SDS011;696;48.546;9.896;2023-04-16T10:13:13;12.27;;;5.68;;
1402;SDS011;696;48.546;9.896;2023-04-16T10:15:41;6.63;;;4.95;;
1402;SDS011;696;48.546;9.896;2023-04-16T10:18:07;9.65;;;5.28;;
1402;SDS011;696;48.546;9.896;2023-04-16T10:20:32;11.60;;;6.47;;
1402;SDS011;696;48.546;9.896;2023-04-16T10:22:58;12.13;;;6.10;;
1402;SDS011;696;48.546;9.896;2023-04-16T10:25:23;6.25;;;4.20;;
1402;SDS011;696;48.546;9.896;2023-04-16T10:27:49;7.05;;;4.45;;
1402;SDS011;696;48.546;9.896;2023-04-16T10:30:15;7.68;;;4.95;;
1402;SDS011;696;48.546;9.896;2023-04-16T10:32:40;7.57;;;4.55;;
1402;SDS011;696;48.546;9.896;2023-04-16T10:35:06;7.22;;;4.88;;
1402;SDS011;696;48.546;9.896;2023-04-16T10:37:32;7.50;;;5.10;;
1402;SDS011;696;48.546;9.896;2023-04-16T10:39:57;9.13;;;4.82;;
1402;SDS011;696;48.546;9.896;2023-04-16T10:42:24;9.05;;;4.85;;
1402;SDS011;696;48.546;9.896;2023-04-16T10:44:50;5.55;;;4.32;;
1402;SDS011;696;48.546;9.896;2023-04-16T10:47:15;7.35;;;4.10;;
1402;SDS011;696;48.546;9.896;2023-04-16T10:49:41;6.43;;;4.10;;
1402;SDS011;696;48.546;9.896;2023-04-16T10:52:11;4.90;;;3.40;;
1402;SDS011;696;48.546;9.896;2023-04-16T10:54:38;7.00;;;3.53;;
1402;SDS011;696;48.546;9.896;2023-04-16T10:57:06;5.00;;;3.60;;
1402;SDS011;696;48.546;9.896;2023-04-16T10:59:36;7.57;;;4.70;;
1402;SDS011;696;48.546;9.896;2023-04-16T11:02:06;10.25;;;5.57;;
1402;SDS011;696;48.546;9.896;2023-04-16T11:12:10;8.68;;;3.60;;
1402;SDS011;696;48.546;9.896;2023-04-16T11:14:37;6.10;;;4.40;;
1402;SDS011;696;48.546;9.896;2023-04-16T11:17:04;8.98;;;5.10;;
1402;SDS011;696;48.546;9.896;2023-04-16T11:19:29;5.47;;;4.32;;
1402;SDS011;696;48.546;9.896;2023-04-16T11:21:55;7.63;;;4.72;;
1402;SDS011;696;48.546;9.896;2023-04-16T11:24:20;9.30;;;5.53;;
1402;SDS011;696;48.546;9.896;2023-04-16T11:26:46;6.22;;;4.72;;
1402;SDS011;696;48.546;9.896;2023-04-16T11:29:15;7.10;;;4.32;;
1402;SDS011;696;48.546;9.896;2023-04-16T11:31:41;8.05;;;4.20;;
1402;SDS011;696;48.546;9.896;2023-04-16T11:34:06;7.70;;;4.68;;
1402;SDS011;696;48.546;9.896;2023-04-16T11:36:45;6.95;;;4.50;;
1402;SDS011;696;48.546;9.896;2023-04-16T11:39:10;6.97;;;4.65;;
1402;SDS011;696;48.546;9.896;2023-04-16T11:41:57;7.05;;;4.20;;
1402;SDS011;696;48.546;9.896;2023-04-16T11:44:22;7.78;;;5.05;;
1402;SDS011;696;48.546;9.896;2023-04-16T11:46:49;8.15;;;5.03;;
1402;SDS011;696;48.546;9.896;2023-04-16T11:49:15;8.27;;;5.03;;
1402;SDS011;696;48.546;9.896;2023-04-16T11:51:42;7.03;;;4.93;;
1402;SDS011;696;48.546;9.896;2023-04-16T11:54:08;7.38;;;4.90;;
1402;SDS011;696;48.546;9.896;2023-04-16T11:56:34;8.07;;;5.13;;
1402;SDS011;696;48.546;9.896;2023-04-16T11:59:07;8.63;;;5.55;;
1402;SDS011;696;48.546;9.896;2023-04-16T12:01:34;6.90;;;4.55;;
1402;SDS011;696;48.546;9.896;2023-04-16T12:04:00;8.45;;;5.55;;
1402;SDS011;696;48.546;9.896;2023-04-16T12:06:26;6.78;;;5.05;;
1402;SDS011;696;48.546;9.896;2023-04-16T12:08:52;6.40;;;4.55;;
1402;SDS011;696;48.546;9.896;2023-04-16T12:11:17;6.65;;;3.97;;
1402;SDS011;696;48.546;9.896;2023-04-16T12:14:05;6.53;;;4.05;;
1402;SDS011;696;48.546;9.896;2023-04-16T12:16:31;9.25;;;4.22;;
1402;SDS011;696;48.546;9.896;2023-04-16T12:18:57;4.75;;;3.78;;
1402;SDS011;696;48.546;9.896;2023-04-16T12:21:23;6.55;;;4.18;;
1402;SDS011;696;48.546;9.896;2023-04-16T12:23:51;8.80;;;4.22;;
1402;SDS011;696;48.546;9.896;2023-04-16T12:26:17;7.25;;;4.82;;
1402;SDS011;696;48.546;9.896;2023-04-16T12:28:42;6.13;;;3.60;;
1402;SDS011;696;48.546;9.896;2023-04-16T12:31:08;8.45;;;4.55;;
1402;SDS011;696;48.546;9.896;2023-04-16T12:33:35;6.20;;;4.10;;
1402;SDS011;696;48.546;9.896;2023-04-16T12:36:00;6.18;;;3.42;;
1402;SDS011;696;48.546;9.896;2023-04-16T12:38:27;6.25;;;3.38;;
1402;SDS011;696;48.546;9.896;2023-04-16T12:40:52;5.80;;;3.80;;
1402;SDS011;696;48.546;9.896;2023-04-16T12:43:20;6.07;;;3.83;;
1402;SDS011;696;48.546;9.896;2023-04-16T12:45:46;4.70;;;3.40;;
1402;SDS011;696;48.546;9.896;2023-04-16T12:48:11;5.10;;;3.15;;
1402;SDS011;696;48.546;9.896;2023-04-16T12:50:37;7.00;;;4.13;;
1402;SDS011;696;48.546;9.896;2023-04-16T12:53:03;4.80;;;3.60;;
1402;SDS011;696;48.546;9.896;2023-04-16T12:55:29;5.65;;;3.38;;
1402;SDS011;696;48.546;9.896;2023-04-16T12:57:54;4.20;;;3.15;;
1402;SDS011;696;48.546;9.896;2023-04-16T13:00:20;4.72;;;3.25;;
1402;SDS011;696;48.546;9.896;2023-04-16T13:02:46;4.57;;;3.28;;
1402;SDS011;696;48.546;9.896;2023-04-16T13:05:11;7.18;;;4.10;;
1402;SDS011;696;48.546;9.896;2023-04-16T13:07:40;7.55;;;4.00;;
1402;SDS011;696;48.546;9.896;2023-04-16T13:10:06;8.13;;;3.90;;
1402;SDS011;696;48.546;9.896;2023-04-16T13:12:31;4.78;;;3.28;;
1402;SDS011;696;48.546;9.896;2023-04-16T13:14:57;4.68;;;3.22;;
1402;SDS011;696;48.546;9.896;2023-04-16T13:17:22;9.95;;;3.53;;
1402;SDS011;696;48.546;9.896;2023-04-16T13:19:47;4.28;;;2.72;;
1402;SDS011;696;48.546;9.896;2023-04-16T13:22:13;6.28;;;3.30;;
1402;SDS011;696;48.546;9.896;2023-04-16T13:24:38;3.58;;;2.95;;
1402;SDS011;696;48.546;9.896;2023-04-16T13:27:04;8.13;;;3.42;;
1402;SDS011;696;48.546;9.896;2023-04-16T13:29:29;5.47;;;3.70;;
1402;SDS011;696;48.546;9.896;2023-04-16T13:31:55;4.53;;;2.85;;
1402;SDS011;696;48.546;9.896;2023-04-16T13:34:21;4.97;;;3.40;;
1402;SDS011;696;48.546;9.896;2023-04-16T13:36:46;5.22;;;3.15;;
1402;SDS011;696;48.546;9.896;2023-04-16T13:39:12;6.07;;;4.03;;
1402;SDS011;696;48.546;9.896;2023-04-16T13:41:38;4.45;;;3.30;;
1402;SDS011;696;48.546;9.896;2023-04-16T13:44:03;4.97;;;3.17;;
1402;SDS011;696;48.546;9.896;2023-04-16T13:46:29;5.35;;;3.40;;
1402;SDS011;696;48.546;9.896;2023-04-16T13:48:55;4.55;;;3.15;;
1402;SDS011;696;48.546;9.896;2023-04-16T13:51:20;6.00;;;3.20;;
1402;SDS011;696;48.546;9.896;2023-04-16T13:53:46;4.50;;;3.35;;
1402;SDS011;696;48.546;9.896;2023-04-16T13:56:11;6.20;;;3.45;;
1402;SDS011;696;48.546;9.896;2023-04-16T13:58:37;3.90;;;3.10;;
1402;SDS011;696;48.546;9.896;2023-04-16T14:01:02;5.53;;;2.95;;
1402;SDS011;696;48.546;9.896;2023-04-16T14:03:28;4.07;;;2.83;;
1402;SDS011;696;48.546;9.896;2023-04-16T14:05:53;3.67;;;3.00;;
1402;SDS011;696;48.546;9.896;2023-04-16T14:08:18;12.85;;;7.25;;
1402;SDS011;696;48.546;9.896;2023-04-16T14:10:45;6.10;;;3.35;;
1402;SDS011;696;48.546;9.896;2023-04-16T14:13:13;5.90;;;3.55;;
1402;SDS011;696;48.546;9.896;2023-04-16T14:15:38;6.50;;;4.03;;
1402;SDS011;696;48.546;9.896;2023-04-16T14:18:04;4.95;;;3.20;;
1402;SDS011;696;48.546;9.896;2023-04-16T14:20:29;3.83;;;2.78;;
1402;SDS011;696;48.546;9.896;2023-04-16T14:22:55;4.10;;;3.13;;
1402;SDS011;696;48.546;9.896;2023-04-16T14:25:21;6.18;;;2.88;;
1402;SDS011;696;48.546;9.896;2023-04-16T14:27:47;3.63;;;3.05;;
1402;SDS011;696;48.546;9.896;2023-04-16T14:30:13;5.40;;;3.13;;
1402;SDS011;696;48.546;9.896;2023-04-16T14:32:38;7.53;;;3.15;;
1402;SDS011;696;48.546;9.896;2023-04-16T14:35:04;3.70;;;3.05;;
1402;SDS011;696;48.546;9.896;2023-04-16T14:37:29;7.47;;;2.85;;
1402;SDS011;696;48.546;9.896;2023-04-16T14:39:55;3.95;;;3.10;;
1402;SDS011;696;48.546;9.896;2023-04-16T14:42:20;3.55;;;2.85;;
1402;SDS011;696;48.546;9.896;2023-04-16T14:44:46;4.70;;;2.75;;
1402;SDS011;696;48.546;9.896;2023-04-16T14:47:11;7.20;;;3.30;;
1402;SDS011;696;48.546;9.896;2023-04-16T14:49:37;6.20;;;3.17;;
1402;SDS011;696;48.546;9.896;2023-04-16T14:52:02;5.15;;;3.20;;
1402;SDS011;696;48.546;9.896;2023-04-16T14:54:30;4.63;;;3.33;;
1402;SDS011;696;48.546;9.896;2023-04-16T14:56:56;4.78;;;3.05;;
1402;SDS011;696;48.546;9.896;2023-04-16T14:59:21;3.38;;;2.67;;
1402;SDS011;696;48.546;9.896;2023-04-16T15:01:46;4.15;;;2.92;;
1402;SDS011;696;48.546;9.896;2023-04-16T15:04:12;4.03;;;2.65;;
1402;SDS011;696;48.546;9.896;2023-04-16T15:06:38;2.83;;;2.40;;
1402;SDS011;696;48.546;9.896;2023-04-16T15:09:04;4.72;;;2.83;;
1402;SDS011;696;48.546;9.896;2023-04-16T15:11:31;4.25;;;2.85;;
1402;SDS011;696;48.546;9.896;2023-04-16T15:13:56;4.35;;;2.70;;
1402;SDS011;696;48.546;9.896;2023-04-16T15:16:22;3.45;;;2.58;;
1402;SDS011;696;48.546;9.896;2023-04-16T15:18:47;3.92;;;3.03;;
1402;SDS011;696;48.546;9.896;2023-04-16T15:21:12;3.95;;;2.63;;
1402;SDS011;696;48.546;9.896;2023-04-16T15:23:38;4.57;;;3.05;;
1402;SDS011;696;48.546;9.896;2023-04-16T15:26:03;4.55;;;2.90;;
1402;SDS011;696;48.546;9.896;2023-04-16T15:28:29;3.95;;;2.67;;
1402;SDS011;696;48.546;9.896;2023-04-16T15:30:55;4.45;;;3.20;;